« Back
NWS Peachtree City, Ga » Text Product » AHN Terminal Aerodrome Forecast


Printer-friendly Version
Current Version              Previous Versions:   1  2  3  4  5  6  7  8  9  

Terminal Aerodrome Forecast

699
FTUS42 KFFC 291131
TAFAHN
TAF
KAHN 291131Z 2912/3012 04003KT P6SM SKC
     FM291400 10005KT P6SM SKC
     FM291900 15006KT P6SM SKC
     FM300000 17004KT P6SM FEW050
     FM300500 19005KT P6SM BKN035
     FM300800 21006KT P6SM OVC012=

USA.gov is the U.S. government's official web portal to all federal, state and local government web resources and services.